createdAt,value
2023-03-19T00:02:27.461Z,14.10
2023-03-19T00:06:28.580Z,14.10
2023-03-19T00:10:29.726Z,14.20
2023-03-19T00:14:30.897Z,14.20
2023-03-19T00:18:32.780Z,14.20
2023-03-19T00:22:33.928Z,14.20
2023-03-19T00:26:35.695Z,14.20
2023-03-19T00:30:36.870Z,14.30
2023-03-19T00:34:38.014Z,14.20
2023-03-19T00:38:39.751Z,14.20
2023-03-19T00:42:41.440Z,14.10
2023-03-19T00:46:42.551Z,14.10
2023-03-19T00:50:43.718Z,14.10
2023-03-19T00:54:45.384Z,14.10
2023-03-19T00:58:47.281Z,14.00
2023-03-19T01:02:48.418Z,14.10
2023-03-19T01:06:50.283Z,14.00
2023-03-19T01:10:51.419Z,13.90
2023-03-19T01:14:52.583Z,13.90
2023-03-19T01:18:53.740Z,13.90
2023-03-19T01:22:55.419Z,13.90
2023-03-19T01:26:57.087Z,13.90
2023-03-19T01:31:00.202Z,13.80
2023-03-19T01:35:01.289Z,13.80
2023-03-19T01:39:03.177Z,13.90
2023-03-19T01:43:14.084Z,13.90
2023-03-19T01:47:28.345Z,13.90
2023-03-19T01:51:33.305Z,13.90
2023-03-19T01:55:34.956Z,13.90
2023-03-19T01:59:42.234Z,13.90
2023-03-19T02:03:44.284Z,13.90
2023-03-19T02:07:45.742Z,13.90
2023-03-19T02:11:46.995Z,13.90
2023-03-19T02:15:50.317Z,13.90
2023-03-19T02:20:08.030Z,13.90
2023-03-19T02:24:17.337Z,13.80
2023-03-19T02:28:21.712Z,13.70
2023-03-19T02:32:22.809Z,13.80
2023-03-19T02:36:27.752Z,13.80
2023-03-19T02:40:32.607Z,13.70
2023-03-19T02:44:33.982Z,13.80
2023-03-19T02:48:35.915Z,13.80
2023-03-19T02:52:37.089Z,13.80
2023-03-19T02:56:38.256Z,13.80
2023-03-19T03:00:40.570Z,13.80
2023-03-19T03:04:41.685Z,13.80
2023-03-19T03:08:43.663Z,13.70
2023-03-19T03:12:45.744Z,13.60
2023-03-19T03:16:46.953Z,13.60
2023-03-19T03:20:48.437Z,13.60
2023-03-19T03:24:49.854Z,13.40
2023-03-19T03:28:51.609Z,13.20
2023-03-19T03:32:52.683Z,13.20
2023-03-19T03:36:53.823Z,13.10
2023-03-19T03:40:54.998Z,13.00
2023-03-19T03:44:56.161Z,12.90
2023-03-19T03:48:57.326Z,13.10
2023-03-19T03:52:58.528Z,13.10
2023-03-19T03:57:03.224Z,13.00
2023-03-19T04:01:03.694Z,13.00
2023-03-19T04:05:05.915Z,13.00
2023-03-19T04:09:07.396Z,12.90
2023-03-19T04:13:10.358Z,12.80
2023-03-19T04:17:11.518Z,12.80
2023-03-19T04:21:12.962Z,12.90
2023-03-19T04:25:14.666Z,13.00
2023-03-19T04:29:15.915Z,13.00
2023-03-19T04:33:17.683Z,13.10
2023-03-19T04:37:18.964Z,13.20
2023-03-19T04:41:20.225Z,13.20
2023-03-19T04:45:21.380Z,13.10
2023-03-19T04:49:23.720Z,13.20
2023-03-19T04:53:25.093Z,13.20
2023-03-19T04:57:26.351Z,13.40
2023-03-19T05:01:27.646Z,13.40
2023-03-19T05:05:28.969Z,13.40
2023-03-19T05:09:30.237Z,13.40
2023-03-19T05:13:31.409Z,13.50
2023-03-19T05:17:32.864Z,13.40
2023-03-19T05:21:34.030Z,13.50
2023-03-19T05:25:35.341Z,13.40
2023-03-19T05:29:37.695Z,13.40
2023-03-19T05:33:39.528Z,13.50
2023-03-19T05:37:40.979Z,13.50
2023-03-19T05:41:42.262Z,13.50
2023-03-19T05:45:43.431Z,13.50
2023-03-19T05:51:11.592Z,13.50
2023-03-19T05:55:12.787Z,13.60
2023-03-19T05:59:14.126Z,13.60
2023-03-19T06:03:15.998Z,13.60
2023-03-19T06:07:17.594Z,13.70
2023-03-19T06:11:18.794Z,13.60
2023-03-19T06:15:20.464Z,13.60
2023-03-19T06:19:22.214Z,13.60
2023-03-19T06:23:23.366Z,13.60
2023-03-19T06:27:24.944Z,13.50
2023-03-19T06:31:27.392Z,13.60
2023-03-19T06:35:28.591Z,13.60
2023-03-19T06:39:29.927Z,13.60
2023-03-19T06:43:32.037Z,13.70
2023-03-19T06:47:33.213Z,13.80
2023-03-19T06:51:34.432Z,13.80
2023-03-19T06:55:36.826Z,14.00
2023-03-19T06:59:37.985Z,14.10
2023-03-19T07:03:39.148Z,14.00
2023-03-19T07:07:40.716Z,14.10
2023-03-19T07:11:42.192Z,14.10
2023-03-19T07:15:43.380Z,14.30
2023-03-19T07:19:44.770Z,14.30
2023-03-19T07:23:46.276Z,14.30
2023-03-19T07:27:47.464Z,14.60
2023-03-19T07:31:48.686Z,14.90
2023-03-19T07:35:50.092Z,15.10
2023-03-19T07:39:51.614Z,15.40
2023-03-19T07:43:52.807Z,15.70
2023-03-19T07:47:53.987Z,15.90
2023-03-19T07:51:55.212Z,16.40
2023-03-19T07:55:56.388Z,16.90
2023-03-19T07:59:57.768Z,17.40
2023-03-19T08:03:59.200Z,17.60
2023-03-19T08:08:00.505Z,17.60
2023-03-19T08:12:08.167Z,17.50
2023-03-19T08:16:09.542Z,17.50
2023-03-19T08:20:15.620Z,17.30
2023-03-19T08:24:18.038Z,17.60
2023-03-19T08:28:19.665Z,17.60
2023-03-19T08:32:21.047Z,17.90
2023-03-19T08:36:22.216Z,18.10
2023-03-19T08:40:23.497Z,18.30
2023-03-19T08:44:24.704Z,18.50
2023-03-19T08:48:27.219Z,18.60
2023-03-19T08:52:28.416Z,18.80
2023-03-19T08:56:29.631Z,19.60
2023-03-19T09:00:30.921Z,19.70
2023-03-19T09:04:34.106Z,20.10
2023-03-19T09:08:36.850Z,20.00
2023-03-19T09:12:38.029Z,20.00
2023-03-19T09:16:39.710Z,20.40
2023-03-19T09:20:42.004Z,20.60
2023-03-19T09:24:43.412Z,21.20
2023-03-19T09:28:44.588Z,21.80
2023-03-19T09:32:45.756Z,22.00
2023-03-19T09:36:46.905Z,22.10
2023-03-19T09:41:02.382Z,22.70
2023-03-19T09:45:04.424Z,23.10
2023-03-19T09:49:18.013Z,23.40
2023-03-19T09:53:32.290Z,23.60
2023-03-19T09:57:35.373Z,23.90
2023-03-19T10:01:40.050Z,24.20
2023-03-19T10:06:05.033Z,24.40
2023-03-19T10:10:26.862Z,24.20
2023-03-19T10:14:54.675Z,23.50
2023-03-19T10:19:02.256Z,22.80
2023-03-19T10:23:27.194Z,22.20
2023-03-19T10:27:29.134Z,21.50
2023-03-19T10:31:55.084Z,21.20
2023-03-19T10:35:59.544Z,20.80
2023-03-19T10:40:03.637Z,20.70
2023-03-19T10:44:29.543Z,20.50
2023-03-19T10:48:31.806Z,21.30
2023-03-19T10:52:36.085Z,22.30
2023-03-19T10:56:41.072Z,22.40
2023-03-19T11:00:47.767Z,22.20
2023-03-19T11:04:52.676Z,21.90
2023-03-19T11:08:59.602Z,21.70
2023-03-19T11:13:19.951Z,22.10
2023-03-19T11:17:30.926Z,21.90
2023-03-19T11:21:32.292Z,21.80
2023-03-19T11:25:37.199Z,21.60
2023-03-19T11:29:43.540Z,21.90
2023-03-19T11:33:54.722Z,21.60
2023-03-19T11:38:03.785Z,21.60
2023-03-19T11:42:44.524Z,21.80
2023-03-19T11:46:54.427Z,21.90
2023-03-19T11:51:03.850Z,21.90
2023-03-19T11:55:21.526Z,22.00
2023-03-19T11:59:41.434Z,21.70
2023-03-19T12:03:49.431Z,22.10
2023-03-19T12:08:00.442Z,22.10
2023-03-19T12:12:05.659Z,22.20
2023-03-19T12:16:30.653Z,21.90
2023-03-19T12:20:53.643Z,21.50
2023-03-19T12:25:18.588Z,21.20
2023-03-19T12:29:35.771Z,20.70
2023-03-19T12:33:43.829Z,20.40
2023-03-19T12:37:54.914Z,20.40
2023-03-19T12:41:57.687Z,20.70
2023-03-19T12:46:06.225Z,20.60
2023-03-19T12:50:10.994Z,20.30
2023-03-19T12:54:16.476Z,19.90
2023-03-19T12:58:29.354Z,20.20
2023-03-19T13:02:43.329Z,20.70
2023-03-19T13:06:51.299Z,21.10
2023-03-19T13:10:52.770Z,21.20
2023-03-19T13:15:25.399Z,21.70
2023-03-19T13:19:34.875Z,22.10
2023-03-19T13:23:38.965Z,21.80
2023-03-19T13:27:40.140Z,21.50
2023-03-19T13:31:42.701Z,21.60
2023-03-19T13:35:46.915Z,21.40
2023-03-19T13:39:48.548Z,21.10
2023-03-19T13:43:53.714Z,20.80
2023-03-19T13:47:58.781Z,21.00
2023-03-19T13:52:04.750Z,20.80
2023-03-19T13:56:28.489Z,20.70
2023-03-19T14:00:44.743Z,20.80
2023-03-19T14:04:55.927Z,20.50
2023-03-19T14:08:57.663Z,20.40
2023-03-19T14:13:08.703Z,20.30
2023-03-19T14:17:16.225Z,20.10
2023-03-19T14:21:33.232Z,20.10
2023-03-19T14:26:07.470Z,20.20
2023-03-19T14:30:12.680Z,20.20
2023-03-19T14:34:27.139Z,20.30
2023-03-19T14:38:53.250Z,19.90
2023-03-19T14:43:10.471Z,19.40
2023-03-19T14:47:49.159Z,18.80
2023-03-19T14:52:10.960Z,18.40
2023-03-19T14:56:21.097Z,18.20
2023-03-19T15:00:23.642Z,18.00
2023-03-19T15:04:26.393Z,18.00
2023-03-19T15:08:30.617Z,17.90
2023-03-19T15:12:52.538Z,17.80
2023-03-19T15:21:08.479Z,17.70
2023-03-19T15:25:13.463Z,17.70
2023-03-19T15:29:18.677Z,17.60
2023-03-19T15:33:38.898Z,17.80
2023-03-19T15:37:32.586Z,17.70
2023-03-19T15:41:39.169Z,17.80
2023-03-19T15:45:43.988Z,18.20
2023-03-19T15:49:55.258Z,18.40
2023-03-19T15:53:56.836Z,18.50
2023-03-19T16:02:16.306Z,19.00
2023-03-19T16:06:21.300Z,18.60
2023-03-19T16:10:35.749Z,18.90
2023-03-19T16:14:45.362Z,19.00
2023-03-19T16:18:50.739Z,18.80
2023-03-19T16:22:58.128Z,18.90
2023-03-19T16:27:02.866Z,18.80
2023-03-19T16:31:04.698Z,18.50
2023-03-19T16:35:19.325Z,18.50
2023-03-19T16:39:24.352Z,18.40
2023-03-19T16:43:31.278Z,18.30
2023-03-19T16:47:32.533Z,18.20
2023-03-19T16:51:35.105Z,17.80
2023-03-19T16:55:36.684Z,17.80
2023-03-19T16:59:38.754Z,17.70
2023-03-19T17:03:39.941Z,17.60
2023-03-19T17:07:41.849Z,17.40
2023-03-19T17:11:43.408Z,17.40
2023-03-19T17:15:45.959Z,17.20
2023-03-19T17:19:47.298Z,17.20
2023-03-19T17:23:48.883Z,17.00
2023-03-19T17:27:50.446Z,16.90
2023-03-19T17:31:54.072Z,16.70
2023-03-19T17:35:57.810Z,16.70
2023-03-19T17:39:59.006Z,16.60
2023-03-19T17:44:06.813Z,16.50
2023-03-19T17:48:12.024Z,16.30
2023-03-19T17:52:18.264Z,16.20
2023-03-19T17:56:24.361Z,16.00
2023-03-19T18:00:25.661Z,16.00
2023-03-19T18:04:26.986Z,16.10
2023-03-19T18:08:28.205Z,16.00
2023-03-19T18:12:29.511Z,15.90
2023-03-19T18:16:32.102Z,15.80
2023-03-19T18:20:38.430Z,15.60
2023-03-19T18:24:39.986Z,15.30
2023-03-19T18:28:41.151Z,15.00
2023-03-19T18:32:46.552Z,14.90
2023-03-19T18:36:47.698Z,14.80
2023-03-19T18:40:49.977Z,14.70
2023-03-19T18:44:51.395Z,14.90
2023-03-19T18:48:56.344Z,15.00
2023-03-19T18:52:58.766Z,15.10
2023-03-19T19:01:12.832Z,15.00
2023-03-19T19:05:17.183Z,14.70
2023-03-19T19:09:18.363Z,14.60
2023-03-19T19:13:28.764Z,14.40
2023-03-19T19:17:31.633Z,14.00
2023-03-19T19:21:32.829Z,13.80
2023-03-19T19:25:33.985Z,13.80
2023-03-19T19:29:35.245Z,13.70
2023-03-19T19:33:36.406Z,13.60
2023-03-19T19:37:37.606Z,13.80
2023-03-19T19:41:39.758Z,13.60
2023-03-19T19:45:41.036Z,13.60
2023-03-19T19:49:43.433Z,13.50
2023-03-19T19:53:44.817Z,13.40
2023-03-19T19:57:46.753Z,13.30
2023-03-19T20:01:47.961Z,13.40
2023-03-19T20:05:49.799Z,13.40
2023-03-19T20:09:51.105Z,13.30
2023-03-19T20:13:54.926Z,13.20
2023-03-19T20:17:56.133Z,13.40
2023-03-19T20:21:57.353Z,13.30
2023-03-19T20:25:59.051Z,13.20
2023-03-19T20:30:05.068Z,13.50
2023-03-19T20:34:14.806Z,13.60
2023-03-19T20:38:17.398Z,13.40
2023-03-19T20:42:18.785Z,13.60
2023-03-19T20:46:22.388Z,13.50
2023-03-19T20:50:29.095Z,13.40
2023-03-19T20:54:31.558Z,13.60
2023-03-19T20:58:36.385Z,13.50
2023-03-19T21:02:37.584Z,13.40
2023-03-19T21:06:52.454Z,13.20
2023-03-19T21:10:43.872Z,13.00
2023-03-19T21:14:45.051Z,13.00
2023-03-19T21:18:46.802Z,13.10
2023-03-19T21:22:51.761Z,13.00
2023-03-19T21:26:55.630Z,13.00
2023-03-19T21:30:57.798Z,13.00
2023-03-19T21:34:58.917Z,13.10
2023-03-19T21:39:00.725Z,13.10
2023-03-19T21:43:02.603Z,13.00
2023-03-19T21:47:04.046Z,13.10
2023-03-19T21:51:06.009Z,13.10
2023-03-19T21:55:08.575Z,13.20
2023-03-19T21:59:15.758Z,13.20
2023-03-19T22:03:19.621Z,13.30
2023-03-19T22:07:20.878Z,13.30
2023-03-19T22:11:25.815Z,13.40
2023-03-19T22:15:34.243Z,13.50
2023-03-19T22:19:36.371Z,13.50
2023-03-19T22:23:37.547Z,13.30
2023-03-19T22:27:44.008Z,13.30
2023-03-19T22:31:47.533Z,13.20
2023-03-19T22:35:49.628Z,13.30
2023-03-19T22:39:51.354Z,13.20
2023-03-19T22:43:53.313Z,13.30
2023-03-19T22:47:56.483Z,13.10
2023-03-19T22:51:58.287Z,13.10
2023-03-19T22:56:00.737Z,13.10
2023-03-19T23:00:05.251Z,13.20
2023-03-19T23:04:19.193Z,13.20
2023-03-19T23:08:21.269Z,13.10
2023-03-19T23:12:22.461Z,12.90
2023-03-19T23:16:24.583Z,13.00
2023-03-19T23:20:27.475Z,13.10
2023-03-19T23:24:30.060Z,13.00
2023-03-19T23:28:33.945Z,12.90
2023-03-19T23:32:35.560Z,12.70
2023-03-19T23:36:37.075Z,12.70
2023-03-19T23:40:46.292Z,12.70
2023-03-19T23:44:47.534Z,12.70
2023-03-19T23:48:48.737Z,12.80
2023-03-19T23:52:50.178Z,12.80
2023-03-19T23:56:52.169Z,12.80
